sensor_id;sensor_type;location;lat;lon;timestamp;temperature;humidity
70548;DHT22;58099;43.406;3.698;2023-02-22T08:13:51;12.60;99.90
70548;DHT22;58099;43.406;3.698;2023-02-22T08:16:16;12.80;99.90
70548;DHT22;58099;43.406;3.698;2023-02-22T08:18:42;13.30;99.90
70548;DHT22;58099;43.406;3.698;2023-02-22T08:21:08;13.90;99.90
70548;DHT22;58099;43.406;3.698;2023-02-22T08:23:34;13.80;99.90
70548;DHT22;58099;43.406;3.698;2023-02-22T08:26:07;13.50;99.90
70548;DHT22;58099;43.406;3.698;2023-02-22T08:28:33;13.30;99.90
70548;DHT22;58099;43.406;3.698;2023-02-22T08:30:59;13.20;99.90
70548;DHT22;58099;43.406;3.698;2023-02-22T08:33:24;13.20;99.90
70548;DHT22;58099;43.406;3.698;2023-02-22T08:35:50;13.20;99.90
70548;DHT22;58099;43.406;3.698;2023-02-22T08:38:25;13.20;99.90
70548;DHT22;58099;43.406;3.698;2023-02-22T08:40:51;13.30;99.90
70548;DHT22;58099;43.406;3.698;2023-02-22T08:43:18;13.30;99.90
70548;DHT22;58099;43.406;3.698;2023-02-22T08:45:45;13.40;99.90
70548;DHT22;58099;43.406;3.698;2023-02-22T08:48:12;13.30;99.90
70548;DHT22;58099;43.406;3.698;2023-02-22T08:50:38;13.30;99.90
70548;DHT22;58099;43.406;3.698;2023-02-22T08:53:07;13.40;99.90
70548;DHT22;58099;43.406;3.698;2023-02-22T08:55:36;13.40;99.90
70548;DHT22;58099;43.406;3.698;2023-02-22T08:58:03;13.40;99.90
70548;DHT22;58099;43.406;3.698;2023-02-22T09:00:32;13.40;99.90
70548;DHT22;58099;43.406;3.698;2023-02-22T09:02:59;13.30;99.90
70548;DHT22;58099;43.406;3.698;2023-02-22T09:05:25;13.30;99.90
70548;DHT22;58099;43.406;3.698;2023-02-22T09:07:51;13.30;99.90
70548;DHT22;58099;43.406;3.698;2023-02-22T09:10:20;13.40;99.90
70548;DHT22;58099;43.406;3.698;2023-02-22T09:12:49;13.40;99.90
70548;DHT22;58099;43.406;3.698;2023-02-22T09:15:16;13.50;99.90
70548;DHT22;58099;43.406;3.698;2023-02-22T09:17:41;13.70;99.90
70548;DHT22;58099;43.406;3.698;2023-02-22T09:20:09;13.80;99.90
70548;DHT22;58099;43.406;3.698;2023-02-22T09:22:36;14.00;99.90
70548;DHT22;58099;43.406;3.698;2023-02-22T09:25:03;14.20;99.90
70548;DHT22;58099;43.406;3.698;2023-02-22T09:27:29;14.40;99.90
70548;DHT22;58099;43.406;3.698;2023-02-22T09:29:55;14.50;99.90
70548;DHT22;58099;43.406;3.698;2023-02-22T09:32:23;14.50;99.90
70548;DHT22;58099;43.406;3.698;2023-02-22T09:34:49;14.40;99.90
70548;DHT22;58099;43.406;3.698;2023-02-22T09:37:16;14.50;99.90
70548;DHT22;58099;43.406;3.698;2023-02-22T09:39:43;14.70;99.90
70548;DHT22;58099;43.406;3.698;2023-02-22T09:42:32;14.80;99.90
70548;DHT22;58099;43.406;3.698;2023-02-22T09:45:12;15.10;99.90
70548;DHT22;58099;43.406;3.698;2023-02-22T09:47:42;15.30;99.90
70548;DHT22;58099;43.406;3.698;2023-02-22T09:50:16;15.60;99.90
70548;DHT22;58099;43.406;3.698;2023-02-22T09:55:30;16.30;99.90
70548;DHT22;58099;43.406;3.698;2023-02-22T09:58:01;17.20;99.90
70548;DHT22;58099;43.406;3.698;2023-02-22T10:00:34;17.80;99.90
70548;DHT22;58099;43.406;3.698;2023-02-22T10:03:23;18.20;99.90
70548;DHT22;58099;43.406;3.698;2023-02-22T10:06:11;18.70;99.90
70548;DHT22;58099;43.406;3.698;2023-02-22T10:08:39;18.90;99.90
70548;DHT22;58099;43.406;3.698;2023-02-22T10:22:20;19.80;99.90
70548;DHT22;58099;43.406;3.698;2023-02-22T10:25:09;19.90;99.60
70548;DHT22;58099;43.406;3.698;2023-02-22T10:28:05;20.10;99.40
70548;DHT22;58099;43.406;3.698;2023-02-22T10:30:37;20.30;99.40
70548;DHT22;58099;43.406;3.698;2023-02-22T10:33:16;20.30;99.50
70548;DHT22;58099;43.406;3.698;2023-02-22T10:35:44;20.40;99.10
70548;DHT22;58099;43.406;3.698;2023-02-22T10:43:22;20.70;99.00
70548;DHT22;58099;43.406;3.698;2023-02-22T10:45:51;20.90;98.40
70548;DHT22;58099;43.406;3.698;2023-02-22T10:48:21;21.00;97.80
70548;DHT22;58099;43.406;3.698;2023-02-22T10:50:48;21.80;97.90
70548;DHT22;58099;43.406;3.698;2023-02-22T10:53:15;22.30;97.00
70548;DHT22;58099;43.406;3.698;2023-02-22T10:56:17;22.40;96.90
70548;DHT22;58099;43.406;3.698;2023-02-22T11:06:26;21.80;95.60
70548;DHT22;58099;43.406;3.698;2023-02-22T11:09:07;19.60;97.10
70548;DHT22;58099;43.406;3.698;2023-02-22T11:11:38;19.80;98.60
70548;DHT22;58099;43.406;3.698;2023-02-22T11:14:04;19.30;98.50
70548;DHT22;58099;43.406;3.698;2023-02-22T11:16:35;18.70;99.50
70548;DHT22;58099;43.406;3.698;2023-02-22T11:19:21;19.30;99.50
70548;DHT22;58099;43.406;3.698;2023-02-22T11:22:12;18.90;98.70
70548;DHT22;58099;43.406;3.698;2023-02-22T11:24:55;17.90;99.90
70548;DHT22;58099;43.406;3.698;2023-02-22T11:27:28;18.60;99.90
70548;DHT22;58099;43.406;3.698;2023-02-22T11:32:34;19.10;99.90
70548;DHT22;58099;43.406;3.698;2023-02-22T11:37:52;17.80;99.90
70548;DHT22;58099;43.406;3.698;2023-02-22T11:40:21;16.70;99.90
70548;DHT22;58099;43.406;3.698;2023-02-22T11:42:49;16.60;99.90
70548;DHT22;58099;43.406;3.698;2023-02-22T11:45:16;16.70;99.90
70548;DHT22;58099;43.406;3.698;2023-02-22T11:47:48;16.60;99.90
70548;DHT22;58099;43.406;3.698;2023-02-22T11:55:41;16.20;99.90
70548;DHT22;58099;43.406;3.698;2023-02-22T11:58:22;15.60;99.90
70548;DHT22;58099;43.406;3.698;2023-02-22T12:21:53;15.90;99.90
70548;DHT22;58099;43.406;3.698;2023-02-22T12:25:12;16.20;99.90
70548;DHT22;58099;43.406;3.698;2023-02-22T12:27:19;15.90;99.90
70548;DHT22;58099;43.406;3.698;2023-02-22T12:33:03;15.60;99.90
70548;DHT22;58099;43.406;3.698;2023-02-22T12:35:37;15.20;99.90
70548;DHT22;58099;43.406;3.698;2023-02-22T12:38:14;15.40;99.90
70548;DHT22;58099;43.406;3.698;2023-02-22T12:40:47;15.90;99.90
70548;DHT22;58099;43.406;3.698;2023-02-22T12:44:05;16.20;99.90
70548;DHT22;58099;43.406;3.698;2023-02-22T12:46:36;16.50;99.90
70548;DHT22;58099;43.406;3.698;2023-02-22T12:52:15;16.10;99.90
70548;DHT22;58099;43.406;3.698;2023-02-22T12:54:52;16.00;99.90
70548;DHT22;58099;43.406;3.698;2023-02-22T13:00:43;16.70;99.90
70548;DHT22;58099;43.406;3.698;2023-02-22T13:03:24;16.40;99.90
70548;DHT22;58099;43.406;3.698;2023-02-22T13:09:04;15.30;99.90
70548;DHT22;58099;43.406;3.698;2023-02-22T13:11:49;15.10;99.90
70548;DHT22;58099;43.406;3.698;2023-02-22T13:17:41;15.30;99.90
70548;DHT22;58099;43.406;3.698;2023-02-22T13:20:38;15.00;99.90
70548;DHT22;58099;43.406;3.698;2023-02-22T13:23:08;15.20;99.90
70548;DHT22;58099;43.406;3.698;2023-02-22T13:31:33;15.20;99.90
70548;DHT22;58099;43.406;3.698;2023-02-22T13:39:59;15.30;99.90
70548;DHT22;58099;43.406;3.698;2023-02-22T13:42:39;15.60;99.90
70548;DHT22;58099;43.406;3.698;2023-02-22T13:53:25;15.40;99.90
70548;DHT22;58099;43.406;3.698;2023-02-22T13:55:54;15.40;99.90
70548;DHT22;58099;43.406;3.698;2023-02-22T13:58:24;15.30;99.90
70548;DHT22;58099;43.406;3.698;2023-02-22T14:00:55;15.40;99.90
70548;DHT22;58099;43.406;3.698;2023-02-22T14:05:54;15.70;99.90
70548;DHT22;58099;43.406;3.698;2023-02-22T14:10:52;15.50;99.90
70548;DHT22;58099;43.406;3.698;2023-02-22T14:13:28;15.40;99.90
70548;DHT22;58099;43.406;3.698;2023-02-22T14:18:42;15.40;99.90
70548;DHT22;58099;43.406;3.698;2023-02-22T14:21:19;15.10;99.90
70548;DHT22;58099;43.406;3.698;2023-02-22T14:24:04;15.10;99.90
70548;DHT22;58099;43.406;3.698;2023-02-22T14:26:34;15.40;99.90
70548;DHT22;58099;43.406;3.698;2023-02-22T14:34:08;15.50;99.90
70548;DHT22;58099;43.406;3.698;2023-02-22T14:36:54;15.40;99.90
70548;DHT22;58099;43.406;3.698;2023-02-22T14:39:35;15.30;99.90
70548;DHT22;58099;43.406;3.698;2023-02-22T14:45:25;15.10;99.90
70548;DHT22;58099;43.406;3.698;2023-02-22T14:55:46;14.90;99.90
70548;DHT22;58099;43.406;3.698;2023-02-22T14:58:35;14.80;99.90
70548;DHT22;58099;43.406;3.698;2023-02-22T15:03:48;14.70;99.90
70548;DHT22;58099;43.406;3.698;2023-02-22T15:06:19;14.80;99.90
70548;DHT22;58099;43.406;3.698;2023-02-22T15:08:47;14.70;99.90
70548;DHT22;58099;43.406;3.698;2023-02-22T15:11:30;14.60;99.90
70548;DHT22;58099;43.406;3.698;2023-02-22T15:14:00;14.80;99.90
70548;DHT22;58099;43.406;3.698;2023-02-22T15:16:31;14.80;99.90
70548;DHT22;58099;43.406;3.698;2023-02-22T15:19:02;14.80;99.90
70548;DHT22;58099;43.406;3.698;2023-02-22T15:21:29;14.90;99.90
70548;DHT22;58099;43.406;3.698;2023-02-22T15:24:02;14.80;99.90
70548;DHT22;58099;43.406;3.698;2023-02-22T15:29:07;14.70;99.90
70548;DHT22;58099;43.406;3.698;2023-02-22T15:31:38;14.60;99.90
70548;DHT22;58099;43.406;3.698;2023-02-22T15:34:28;14.60;99.90
70548;DHT22;58099;43.406;3.698;2023-02-22T15:36:57;14.60;99.90
70548;DHT22;58099;43.406;3.698;2023-02-22T15:39:29;14.70;99.90
70548;DHT22;58099;43.406;3.698;2023-02-22T15:42:07;14.60;99.90
70548;DHT22;58099;43.406;3.698;2023-02-22T15:44:39;14.60;99.90
70548;DHT22;58099;43.406;3.698;2023-02-22T15:47:06;14.60;99.90
70548;DHT22;58099;43.406;3.698;2023-02-22T15:49:32;14.40;99.90
70548;DHT22;58099;43.406;3.698;2023-02-22T15:52:06;14.40;99.90
70548;DHT22;58099;43.406;3.698;2023-02-22T15:54:38;14.40;99.90
70548;DHT22;58099;43.406;3.698;2023-02-22T15:57:05;14.40;99.90
70548;DHT22;58099;43.406;3.698;2023-02-22T15:59:31;14.50;99.90
70548;DHT22;58099;43.406;3.698;2023-02-22T16:01:59;14.50;99.90
70548;DHT22;58099;43.406;3.698;2023-02-22T16:04:27;14.50;99.90
70548;DHT22;58099;43.406;3.698;2023-02-22T16:07:07;14.40;99.90
70548;DHT22;58099;43.406;3.698;2023-02-22T16:09:49;14.40;99.90
70548;DHT22;58099;43.406;3.698;2023-02-22T16:12:23;14.40;99.90
70548;DHT22;58099;43.406;3.698;2023-02-22T16:14:49;14.30;99.90
70548;DHT22;58099;43.406;3.698;2023-02-22T16:22:46;14.20;99.90
70548;DHT22;58099;43.406;3.698;2023-02-22T16:32:44;14.60;99.90
70548;DHT22;58099;43.406;3.698;2023-02-22T16:35:11;14.60;99.90
70548;DHT22;58099;43.406;3.698;2023-02-22T16:37:58;14.50;99.90
70548;DHT22;58099;43.406;3.698;2023-02-22T16:40:44;14.50;99.90
70548;DHT22;58099;43.406;3.698;2023-02-22T16:43:13;14.70;99.90
70548;DHT22;58099;43.406;3.698;2023-02-22T16:45:39;14.70;99.90
70548;DHT22;58099;43.406;3.698;2023-02-22T16:48:33;14.70;99.90
70548;DHT22;58099;43.406;3.698;2023-02-22T16:51:11;14.70;99.90
70548;DHT22;58099;43.406;3.698;2023-02-22T16:53:41;14.70;99.90
70548;DHT22;58099;43.406;3.698;2023-02-22T16:56:09;14.80;99.90
70548;DHT22;58099;43.406;3.698;2023-02-22T16:58:37;14.70;99.90
70548;DHT22;58099;43.406;3.698;2023-02-22T17:01:04;14.70;99.90
70548;DHT22;58099;43.406;3.698;2023-02-22T17:03:29;14.70;99.90
70548;DHT22;58099;43.406;3.698;2023-02-22T17:05:58;14.60;99.90
70548;DHT22;58099;43.406;3.698;2023-02-22T17:08:23;14.60;99.90
70548;DHT22;58099;43.406;3.698;2023-02-22T17:10:50;14.60;99.90
70548;DHT22;58099;43.406;3.698;2023-02-22T17:13:22;14.60;99.90
70548;DHT22;58099;43.406;3.698;2023-02-22T17:15:48;14.60;99.90
70548;DHT22;58099;43.406;3.698;2023-02-22T17:18:16;14.60;99.90
70548;DHT22;58099;43.406;3.698;2023-02-22T17:20:47;14.60;99.90
70548;DHT22;58099;43.406;3.698;2023-02-22T17:23:16;14.50;99.90
70548;DHT22;58099;43.406;3.698;2023-02-22T17:25:47;14.50;99.90
70548;DHT22;58099;43.406;3.698;2023-02-22T17:28:14;14.50;99.90
70548;DHT22;58099;43.406;3.698;2023-02-22T17:30:41;14.40;99.90
70548;DHT22;58099;43.406;3.698;2023-02-22T17:33:12;14.40;99.90
70548;DHT22;58099;43.406;3.698;2023-02-22T17:35:39;14.30;99.90
70548;DHT22;58099;43.406;3.698;2023-02-22T17:38:06;14.20;99.90
70548;DHT22;58099;43.406;3.698;2023-02-22T17:40:36;14.10;99.90
70548;DHT22;58099;43.406;3.698;2023-02-22T17:43:04;14.00;99.90
70548;DHT22;58099;43.406;3.698;2023-02-22T17:45:33;14.00;99.90
70548;DHT22;58099;43.406;3.698;2023-02-22T17:48:01;13.90;99.90
70548;DHT22;58099;43.406;3.698;2023-02-22T17:50:27;13.90;99.90
70548;DHT22;58099;43.406;3.698;2023-02-22T17:52:53;14.00;99.90
70548;DHT22;58099;43.406;3.698;2023-02-22T17:55:20;14.00;99.90
70548;DHT22;58099;43.406;3.698;2023-02-22T17:57:49;14.10;99.90
70548;DHT22;58099;43.406;3.698;2023-02-22T18:00:17;14.20;99.90
70548;DHT22;58099;43.406;3.698;2023-02-22T18:03:02;14.20;99.90
70548;DHT22;58099;43.406;3.698;2023-02-22T18:05:31;14.20;99.90
70548;DHT22;58099;43.406;3.698;2023-02-22T18:07:59;14.20;99.90
70548;DHT22;58099;43.406;3.698;2023-02-22T18:10:26;14.20;99.90
70548;DHT22;58099;43.406;3.698;2023-02-22T18:12:52;14.10;99.90
70548;DHT22;58099;43.406;3.698;2023-02-22T18:15:19;14.10;99.90
70548;DHT22;58099;43.406;3.698;2023-02-22T18:17:46;14.10;99.90
70548;DHT22;58099;43.406;3.698;2023-02-22T18:20:13;14.10;99.90
70548;DHT22;58099;43.406;3.698;2023-02-22T18:22:41;14.10;99.90
70548;DHT22;58099;43.406;3.698;2023-02-22T18:25:12;14.10;99.90
70548;DHT22;58099;43.406;3.698;2023-02-22T18:27:39;14.10;99.90
70548;DHT22;58099;43.406;3.698;2023-02-22T18:30:08;13.90;99.90
70548;DHT22;58099;43.406;3.698;2023-02-22T18:32:34;13.80;99.90
70548;DHT22;58099;43.406;3.698;2023-02-22T18:35:00;13.80;99.90
70548;DHT22;58099;43.406;3.698;2023-02-22T18:37:26;13.70;99.90
70548;DHT22;58099;43.406;3.698;2023-02-22T18:39:56;13.80;99.90
70548;DHT22;58099;43.406;3.698;2023-02-22T18:42:22;13.80;99.90
70548;DHT22;58099;43.406;3.698;2023-02-22T18:44:53;13.80;99.90
70548;DHT22;58099;43.406;3.698;2023-02-22T18:47:20;13.80;99.90
70548;DHT22;58099;43.406;3.698;2023-02-22T18:49:46;13.70;99.90
70548;DHT22;58099;43.406;3.698;2023-02-22T18:52:13;13.60;99.90
70548;DHT22;58099;43.406;3.698;2023-02-22T18:54:39;13.50;99.90
70548;DHT22;58099;43.406;3.698;2023-02-22T18:57:08;13.50;99.90
70548;DHT22;58099;43.406;3.698;2023-02-22T18:59:37;13.30;99.90
70548;DHT22;58099;43.406;3.698;2023-02-22T19:02:03;13.20;99.90
70548;DHT22;58099;43.406;3.698;2023-02-22T19:04:29;13.30;99.90
70548;DHT22;58099;43.406;3.698;2023-02-22T19:06:55;13.30;99.90
70548;DHT22;58099;43.406;3.698;2023-02-22T19:09:23;13.30;99.90
70548;DHT22;58099;43.406;3.698;2023-02-22T19:11:52;13.30;99.90
70548;DHT22;58099;43.406;3.698;2023-02-22T19:14:18;13.30;99.90
70548;DHT22;58099;43.406;3.698;2023-02-22T19:16:44;13.40;99.90
70548;DHT22;58099;43.406;3.698;2023-02-22T19:19:12;13.50;99.90
70548;DHT22;58099;43.406;3.698;2023-02-22T19:21:39;13.50;99.90
70548;DHT22;58099;43.406;3.698;2023-02-22T19:24:06;13.50;99.90
70548;DHT22;58099;43.406;3.698;2023-02-22T19:26:32;13.50;99.90
70548;DHT22;58099;43.406;3.698;2023-02-22T19:29:01;13.60;99.90
70548;DHT22;58099;43.406;3.698;2023-02-22T19:31:30;13.60;99.90
70548;DHT22;58099;43.406;3.698;2023-02-22T19:34:09;13.60;99.90
70548;DHT22;58099;43.406;3.698;2023-02-22T19:36:40;13.60;99.90
70548;DHT22;58099;43.406;3.698;2023-02-22T19:39:07;13.50;99.90
70548;DHT22;58099;43.406;3.698;2023-02-22T19:41:33;13.60;99.90
70548;DHT22;58099;43.406;3.698;2023-02-22T19:44:00;13.60;99.90
70548;DHT22;58099;43.406;3.698;2023-02-22T19:46:27;13.60;99.90
70548;DHT22;58099;43.406;3.698;2023-02-22T19:48:53;13.60;99.90
70548;DHT22;58099;43.406;3.698;2023-02-22T19:51:24;13.50;99.90
70548;DHT22;58099;43.406;3.698;2023-02-22T19:53:55;13.50;99.90
70548;DHT22;58099;43.406;3.698;2023-02-22T19:56:22;13.50;99.90
70548;DHT22;58099;43.406;3.698;2023-02-22T19:58:57;13.50;99.90
70548;DHT22;58099;43.406;3.698;2023-02-22T20:01:26;13.50;99.90
70548;DHT22;58099;43.406;3.698;2023-02-22T20:03:56;13.40;99.90
70548;DHT22;58099;43.406;3.698;2023-02-22T20:06:27;13.30;99.90
70548;DHT22;58099;43.406;3.698;2023-02-22T20:08:54;13.30;99.90
70548;DHT22;58099;43.406;3.698;2023-02-22T20:11:21;13.40;99.90
70548;DHT22;58099;43.406;3.698;2023-02-22T20:13:47;13.30;99.90
70548;DHT22;58099;43.406;3.698;2023-02-22T20:16:13;13.40;99.90
70548;DHT22;58099;43.406;3.698;2023-02-22T20:18:46;13.30;99.90
70548;DHT22;58099;43.406;3.698;2023-02-22T20:21:18;13.20;99.90
70548;DHT22;58099;43.406;3.698;2023-02-22T20:23:44;13.20;99.90
70548;DHT22;58099;43.406;3.698;2023-02-22T20:26:19;13.20;99.90
70548;DHT22;58099;43.406;3.698;2023-02-22T20:28:46;13.20;99.90
70548;DHT22;58099;43.406;3.698;2023-02-22T20:31:13;13.20;99.90
70548;DHT22;58099;43.406;3.698;2023-02-22T20:33:40;13.30;99.90
70548;DHT22;58099;43.406;3.698;2023-02-22T20:36:11;13.40;99.90
70548;DHT22;58099;43.406;3.698;2023-02-22T20:38:37;13.40;99.90
70548;DHT22;58099;43.406;3.698;2023-02-22T20:41:08;13.40;99.90
70548;DHT22;58099;43.406;3.698;2023-02-22T20:43:34;13.40;99.90
70548;DHT22;58099;43.406;3.698;2023-02-22T20:46:01;13.30;99.90
70548;DHT22;58099;43.406;3.698;2023-02-22T20:48:28;13.30;99.90
70548;DHT22;58099;43.406;3.698;2023-02-22T20:50:54;13.30;99.90
70548;DHT22;58099;43.406;3.698;2023-02-22T20:53:20;13.20;99.90
70548;DHT22;58099;43.406;3.698;2023-02-22T20:55:50;13.20;99.90
70548;DHT22;58099;43.406;3.698;2023-02-22T20:58:16;13.20;99.90
70548;DHT22;58099;43.406;3.698;2023-02-22T21:00:44;13.20;99.90
70548;DHT22;58099;43.406;3.698;2023-02-22T21:03:10;13.30;99.90
70548;DHT22;58099;43.406;3.698;2023-02-22T21:05:41;13.20;99.90
70548;DHT22;58099;43.406;3.698;2023-02-22T21:08:08;13.20;99.90
70548;DHT22;58099;43.406;3.698;2023-02-22T21:10:44;13.20;99.90
70548;DHT22;58099;43.406;3.698;2023-02-22T21:13:10;13.20;99.90
70548;DHT22;58099;43.406;3.698;2023-02-22T21:15:36;13.20;99.90
70548;DHT22;58099;43.406;3.698;2023-02-22T21:18:03;13.20;99.90
70548;DHT22;58099;43.406;3.698;2023-02-22T21:20:29;13.20;99.90
70548;DHT22;58099;43.406;3.698;2023-02-22T21:22:55;13.20;99.90
70548;DHT22;58099;43.406;3.698;2023-02-22T21:25:21;13.20;99.90
70548;DHT22;58099;43.406;3.698;2023-02-22T21:27:47;13.20;99.90
70548;DHT22;58099;43.406;3.698;2023-02-22T21:30:13;13.30;99.90
70548;DHT22;58099;43.406;3.698;2023-02-22T21:32:40;13.30;99.90
70548;DHT22;58099;43.406;3.698;2023-02-22T21:35:06;13.30;99.90
70548;DHT22;58099;43.406;3.698;2023-02-22T21:37:32;13.30;99.90
70548;DHT22;58099;43.406;3.698;2023-02-22T21:40:01;13.30;99.90
70548;DHT22;58099;43.406;3.698;2023-02-22T21:42:32;13.20;99.90
70548;DHT22;58099;43.406;3.698;2023-02-22T21:44:58;13.20;99.90
70548;DHT22;58099;43.406;3.698;2023-02-22T21:47:24;13.10;99.90
70548;DHT22;58099;43.406;3.698;2023-02-22T21:49:49;13.10;99.90
70548;DHT22;58099;43.406;3.698;2023-02-22T21:52:15;13.00;99.90
70548;DHT22;58099;43.406;3.698;2023-02-22T21:54:41;13.10;99.90
70548;DHT22;58099;43.406;3.698;2023-02-22T21:57:07;13.10;99.90
70548;DHT22;58099;43.406;3.698;2023-02-22T21:59:33;13.10;99.90
70548;DHT22;58099;43.406;3.698;2023-02-22T22:01:59;13.10;99.90
70548;DHT22;58099;43.406;3.698;2023-02-22T22:04:28;13.00;99.90
70548;DHT22;58099;43.406;3.698;2023-02-22T22:06:56;13.00;99.90
70548;DHT22;58099;43.406;3.698;2023-02-22T22:09:24;13.00;99.90
70548;DHT22;58099;43.406;3.698;2023-02-22T22:11:56;13.00;99.90
70548;DHT22;58099;43.406;3.698;2023-02-22T22:14:35;13.10;99.90
70548;DHT22;58099;43.406;3.698;2023-02-22T22:17:02;13.00;99.90
70548;DHT22;58099;43.406;3.698;2023-02-22T22:19:32;13.00;99.90
70548;DHT22;58099;43.406;3.698;2023-02-22T22:21:59;13.00;99.90
70548;DHT22;58099;43.406;3.698;2023-02-22T22:24:26;13.00;99.90
70548;DHT22;58099;43.406;3.698;2023-02-22T22:26:54;12.90;99.90
70548;DHT22;58099;43.406;3.698;2023-02-22T22:29:24;12.90;99.90
70548;DHT22;58099;43.406;3.698;2023-02-22T22:31:53;12.90;99.90
70548;DHT22;58099;43.406;3.698;2023-02-22T22:34:19;12.90;99.90
70548;DHT22;58099;43.406;3.698;2023-02-22T22:36:45;12.90;99.90
70548;DHT22;58099;43.406;3.698;2023-02-22T22:39:11;12.90;99.90
70548;DHT22;58099;43.406;3.698;2023-02-22T22:41:43;12.90;99.90
70548;DHT22;58099;43.406;3.698;2023-02-22T22:44:11;12.80;99.90
70548;DHT22;58099;43.406;3.698;2023-02-22T22:46:37;12.80;99.90
70548;DHT22;58099;43.406;3.698;2023-02-22T22:49:11;12.80;99.90
70548;DHT22;58099;43.406;3.698;2023-02-22T22:51:38;12.70;99.90
70548;DHT22;58099;43.406;3.698;2023-02-22T22:54:08;12.70;99.90
70548;DHT22;58099;43.406;3.698;2023-02-22T22:56:36;12.70;99.90
70548;DHT22;58099;43.406;3.698;2023-02-22T22:59:04;12.70;99.90
70548;DHT22;58099;43.406;3.698;2023-02-22T23:01:34;12.70;99.90
70548;DHT22;58099;43.406;3.698;2023-02-22T23:04:05;12.70;99.90
70548;DHT22;58099;43.406;3.698;2023-02-22T23:06:46;12.60;99.90
70548;DHT22;58099;43.406;3.698;2023-02-22T23:09:27;12.60;99.90
70548;DHT22;58099;43.406;3.698;2023-02-22T23:11:56;12.60;99.90
70548;DHT22;58099;43.406;3.698;2023-02-22T23:14:26;12.60;99.90
70548;DHT22;58099;43.406;3.698;2023-02-22T23:16:56;12.60;99.90
70548;DHT22;58099;43.406;3.698;2023-02-22T23:19:33;12.70;99.90
70548;DHT22;58099;43.406;3.698;2023-02-22T23:22:00;12.60;99.90
70548;DHT22;58099;43.406;3.698;2023-02-22T23:24:26;12.70;99.90
70548;DHT22;58099;43.406;3.698;2023-02-22T23:26:53;12.60;99.90
70548;DHT22;58099;43.406;3.698;2023-02-22T23:29:21;12.70;99.90
70548;DHT22;58099;43.406;3.698;2023-02-22T23:31:48;12.60;99.90
70548;DHT22;58099;43.406;3.698;2023-02-22T23:34:18;12.60;99.90
70548;DHT22;58099;43.406;3.698;2023-02-22T23:36:45;12.60;99.90
70548;DHT22;58099;43.406;3.698;2023-02-22T23:39:16;12.70;99.90
70548;DHT22;58099;43.406;3.698;2023-02-22T23:41:42;12.60;99.90
70548;DHT22;58099;43.406;3.698;2023-02-22T23:44:08;12.60;99.90
70548;DHT22;58099;43.406;3.698;2023-02-22T23:46:42;12.60;99.90
70548;DHT22;58099;43.406;3.698;2023-02-22T23:49:09;12.50;99.90
70548;DHT22;58099;43.406;3.698;2023-02-22T23:51:37;12.50;99.90
70548;DHT22;58099;43.406;3.698;2023-02-22T23:54:10;12.50;99.90
70548;DHT22;58099;43.406;3.698;2023-02-22T23:56:37;12.50;99.90
70548;DHT22;58099;43.406;3.698;2023-02-22T23:59:05;12.50;99.90
